createdAt,value
2023-01-08T00:01:40.403Z,82.66
2023-01-08T00:04:29.031Z,82.57
2023-01-08T00:07:11.241Z,82.36
2023-01-08T00:10:00.043Z,82.37
2023-01-08T00:12:42.211Z,82.63
2023-01-08T00:15:31.857Z,82.58
2023-01-08T00:18:20.977Z,81.56
2023-01-08T00:21:09.929Z,80.61
2023-01-08T00:23:58.988Z,80.00
2023-01-08T00:26:47.969Z,80.91
2023-01-08T00:29:30.289Z,81.13
2023-01-08T00:32:19.029Z,82.57
2023-01-08T00:35:02.618Z,81.75
2023-01-08T00:37:52.923Z,82.50
2023-01-08T00:40:35.584Z,82.42
2023-01-08T00:43:29.975Z,83.18
2023-01-08T00:46:22.015Z,82.18
2023-01-08T00:49:04.217Z,82.34
2023-01-08T00:51:52.891Z,83.42
2023-01-08T00:54:36.327Z,83.73
2023-01-08T00:57:24.886Z,84.04
2023-01-08T01:00:07.313Z,84.15
2023-01-08T01:02:56.029Z,84.38
2023-01-08T01:05:38.339Z,84.95
2023-01-08T01:08:26.944Z,84.67
2023-01-08T01:11:19.913Z,84.55
2023-01-08T01:14:02.340Z,85.15
2023-01-08T01:16:51.959Z,85.28
2023-01-08T01:19:34.249Z,84.87
2023-01-08T01:22:22.972Z,85.05
2023-01-08T01:25:05.745Z,84.47
2023-01-08T01:27:54.966Z,84.48
2023-01-08T01:30:44.118Z,84.74
2023-01-08T01:33:26.243Z,85.31
2023-01-08T01:36:15.932Z,85.28
2023-01-08T01:39:00.399Z,85.62
2023-01-08T01:41:53.963Z,85.51
2023-01-08T01:44:44.465Z,85.74
2023-01-08T01:47:46.947Z,85.48
2023-01-08T01:50:46.969Z,84.99
2023-01-08T01:53:34.098Z,85.39
2023-01-08T01:56:24.341Z,85.99
2023-01-08T01:59:07.243Z,86.07
2023-01-08T02:01:57.071Z,86.03
2023-01-08T02:04:39.367Z,86.14
2023-01-08T02:08:05.872Z,85.84
2023-01-08T02:11:04.968Z,86.23
2023-01-08T02:13:51.230Z,86.79
2023-01-08T02:16:53.970Z,86.49
2023-01-08T02:19:48.248Z,86.20
2023-01-08T02:22:42.868Z,86.36
2023-01-08T02:25:31.293Z,86.75
2023-01-08T02:28:22.861Z,86.89
2023-01-08T02:31:06.366Z,87.24
2023-01-08T02:33:54.865Z,87.31
2023-01-08T02:36:50.863Z,87.24
2023-01-08T02:40:14.162Z,86.53
2023-01-08T02:43:26.846Z,87.38
2023-01-08T02:46:21.294Z,86.89
2023-01-08T02:49:11.859Z,87.17
2023-01-08T02:52:05.278Z,86.65
2023-01-08T02:54:50.013Z,86.18
2023-01-08T02:57:41.309Z,86.44
2023-01-08T03:00:23.936Z,86.79
2023-01-08T03:03:28.318Z,87.09
2023-01-08T03:06:21.857Z,87.17
2023-01-08T03:09:11.202Z,86.95
2023-01-08T03:12:07.880Z,86.88
2023-01-08T03:14:57.293Z,86.44
2023-01-08T03:17:50.894Z,86.87
2023-01-08T03:20:34.651Z,87.20
2023-01-08T03:23:25.815Z,87.30
2023-01-08T03:26:15.240Z,86.42
2023-01-08T03:29:01.898Z,85.93
2023-01-08T03:31:52.981Z,85.84
2023-01-08T03:34:38.260Z,86.22
2023-01-08T03:37:32.846Z,85.78
2023-01-08T03:40:25.794Z,85.60
2023-01-08T03:43:14.959Z,85.13
2023-01-08T03:46:11.207Z,84.98
2023-01-08T03:48:54.921Z,85.05
2023-01-08T03:51:54.220Z,85.27
2023-01-08T03:54:40.929Z,83.56
2023-01-08T03:57:23.531Z,84.25
2023-01-08T04:00:12.866Z,85.13
2023-01-08T04:03:03.227Z,85.31
2023-01-08T04:05:46.215Z,84.86
2023-01-08T04:08:34.977Z,84.62
2023-01-08T04:11:17.186Z,84.31
2023-01-08T04:14:05.875Z,85.00
2023-01-08T04:16:48.295Z,83.92
2023-01-08T04:19:36.929Z,83.75
2023-01-08T04:22:19.188Z,84.52
2023-01-08T04:25:07.897Z,84.05
2023-01-08T04:27:50.200Z,84.30
2023-01-08T04:30:38.925Z,83.49
2023-01-08T04:33:21.246Z,83.42
2023-01-08T04:36:10.981Z,83.36
2023-01-08T04:38:59.927Z,83.95
2023-01-08T04:41:48.260Z,82.54
2023-01-08T04:44:42.876Z,82.26
2023-01-08T04:47:25.140Z,82.04
2023-01-08T04:50:13.948Z,82.51
2023-01-08T04:53:02.207Z,81.57
2023-01-08T04:55:44.951Z,81.66
2023-01-08T04:58:33.167Z,81.35
2023-01-08T05:01:28.080Z,81.50
2023-01-08T05:04:12.203Z,80.46
2023-01-08T05:07:01.218Z,79.77
2023-01-08T05:09:49.273Z,79.50
2023-01-08T05:12:31.909Z,79.45
2023-01-08T05:15:20.200Z,78.25
2023-01-08T05:18:13.955Z,78.90
2023-01-08T05:20:56.728Z,78.75
2023-01-08T05:23:46.842Z,77.39
2023-01-08T05:26:35.869Z,76.62
2023-01-08T05:29:24.816Z,75.94
2023-01-08T05:32:22.158Z,74.53
2023-01-08T05:35:03.993Z,75.29
2023-01-08T05:37:52.202Z,75.99
2023-01-08T05:40:34.878Z,75.90
2023-01-08T05:43:17.207Z,76.17
2023-01-08T05:46:05.974Z,74.35
2023-01-08T05:48:54.874Z,73.07
2023-01-08T05:51:43.832Z,71.41
2023-01-08T05:54:32.181Z,70.60
2023-01-08T05:57:13.823Z,69.87
2023-01-08T06:00:02.135Z,70.47
2023-01-08T06:02:47.019Z,69.27
2023-01-08T06:05:36.417Z,70.09
2023-01-08T06:08:17.828Z,70.55
2023-01-08T06:11:07.779Z,69.90
2023-01-08T06:13:58.888Z,69.93
2023-01-08T06:16:48.233Z,68.72
2023-01-08T06:19:30.931Z,67.49
2023-01-08T06:22:19.222Z,67.32
2023-01-08T06:25:01.852Z,66.46
2023-01-08T06:27:50.937Z,64.28
2023-01-08T06:30:39.943Z,62.03
2023-01-08T06:33:29.182Z,64.03
2023-01-08T06:36:12.926Z,62.12
2023-01-08T06:39:01.242Z,61.25
2023-01-08T06:41:42.905Z,60.61
2023-01-08T06:44:37.762Z,59.16
2023-01-08T06:47:26.934Z,60.03
2023-01-08T06:50:09.290Z,60.69
2023-01-08T06:53:01.844Z,62.07
2023-01-08T06:55:45.163Z,60.95
2023-01-08T06:58:37.941Z,58.66
2023-01-08T07:01:24.354Z,59.37
2023-01-08T07:04:12.889Z,59.40
2023-01-08T07:07:02.871Z,60.05
2023-01-08T07:09:51.884Z,59.61
2023-01-08T07:12:34.128Z,58.59
2023-01-08T07:15:22.917Z,57.89
2023-01-08T07:18:07.007Z,57.26
2023-01-08T07:20:57.916Z,57.02
2023-01-08T07:23:42.949Z,57.63
2023-01-08T07:26:31.799Z,56.78
2023-01-08T07:29:20.907Z,56.02
2023-01-08T07:32:03.841Z,54.60
2023-01-08T07:34:52.825Z,54.61
2023-01-08T07:37:42.175Z,54.15
2023-01-08T07:40:24.825Z,55.66
2023-01-08T07:43:14.748Z,54.44
2023-01-08T07:46:09.828Z,55.82
2023-01-08T07:48:58.534Z,55.21
2023-01-08T07:51:41.891Z,55.04
2023-01-08T07:54:30.207Z,53.70
2023-01-08T07:57:12.889Z,53.04
2023-01-08T08:00:01.177Z,53.04
2023-01-08T08:02:43.972Z,51.81
2023-01-08T08:05:32.096Z,51.29
2023-01-08T08:08:18.869Z,50.65
2023-01-08T08:11:08.200Z,53.08
2023-01-08T08:13:54.186Z,52.04
2023-01-08T08:16:43.770Z,52.60
2023-01-08T08:19:32.781Z,52.28
2023-01-08T08:22:22.191Z,52.66
2023-01-08T08:25:04.833Z,52.00
2023-01-08T08:27:53.853Z,51.39
2023-01-08T08:30:37.173Z,51.58
2023-01-08T08:33:25.828Z,51.51
2023-01-08T08:36:08.167Z,51.84
2023-01-08T08:38:56.831Z,52.37
2023-01-08T08:41:39.122Z,52.46
2023-01-08T08:44:27.817Z,53.55
2023-01-08T08:47:10.403Z,54.23
2023-01-08T08:49:58.859Z,52.92
2023-01-08T08:52:48.782Z,53.04
2023-01-08T08:55:38.163Z,51.86
2023-01-08T08:58:21.865Z,52.05
2023-01-08T09:01:05.145Z,50.87
2023-01-08T09:03:53.876Z,51.51
2023-01-08T09:06:42.853Z,50.84
2023-01-08T09:09:25.209Z,49.69
2023-01-08T09:12:14.880Z,51.65
2023-01-08T09:14:58.070Z,51.75
2023-01-08T09:17:47.908Z,51.60
2023-01-08T09:20:31.191Z,51.75
2023-01-08T09:23:19.887Z,51.96
2023-01-08T09:26:11.228Z,53.70
2023-01-08T09:28:59.862Z,51.66
2023-01-08T09:31:48.958Z,51.52
2023-01-08T09:34:38.893Z,51.86
2023-01-08T09:37:28.221Z,51.96
2023-01-08T09:40:16.120Z,52.37
2023-01-08T09:43:10.709Z,52.62
2023-01-08T09:46:10.791Z,52.04
2023-01-08T09:48:54.954Z,52.55
2023-01-08T09:51:49.909Z,54.05
2023-01-08T09:54:39.114Z,54.74
2023-01-08T09:57:26.863Z,55.54
2023-01-08T10:00:29.257Z,56.49
2023-01-08T10:03:11.855Z,56.75
2023-01-08T10:06:01.096Z,56.98
2023-01-08T10:08:42.876Z,56.61
2023-01-08T10:11:27.987Z,57.48
2023-01-08T10:14:16.791Z,57.87
2023-01-08T10:17:22.861Z,59.55
2023-01-08T10:20:05.360Z,58.30
2023-01-08T10:22:57.968Z,58.36
2023-01-08T10:25:40.230Z,58.74
2023-01-08T10:28:40.102Z,58.08
2023-01-08T10:31:24.313Z,58.09
2023-01-08T10:34:18.810Z,59.00
2023-01-08T10:37:03.194Z,57.96
2023-01-08T10:40:02.823Z,57.11
2023-01-08T10:42:45.133Z,57.71
2023-01-08T10:45:42.866Z,57.36
2023-01-08T10:48:34.298Z,57.01
2023-01-08T10:51:23.865Z,56.18
2023-01-08T10:54:45.183Z,56.90
2023-01-08T10:57:40.797Z,54.15
2023-01-08T11:00:41.179Z,54.93
2023-01-08T11:03:39.856Z,53.57
2023-01-08T11:06:35.317Z,54.99
2023-01-08T11:09:35.885Z,54.52
2023-01-08T11:12:23.888Z,54.78
2023-01-08T11:15:14.907Z,54.97
2023-01-08T11:18:12.137Z,55.81
2023-01-08T11:20:55.817Z,55.03
2023-01-08T11:23:44.771Z,55.14
2023-01-08T11:26:36.863Z,56.00
2023-01-08T11:29:38.391Z,55.18
2023-01-08T11:32:58.152Z,56.30
2023-01-08T11:35:46.315Z,57.43
2023-01-08T11:38:34.817Z,59.76
2023-01-08T11:41:31.418Z,58.87
2023-01-08T11:44:53.843Z,57.56
2023-01-08T11:48:19.135Z,58.54
2023-01-08T11:51:21.913Z,59.05
2023-01-08T11:54:19.143Z,60.25
2023-01-08T11:57:27.889Z,60.29
2023-01-08T12:00:38.681Z,60.13
2023-01-08T12:03:45.863Z,60.35
2023-01-08T12:07:06.178Z,61.30
2023-01-08T12:09:54.895Z,60.45
2023-01-08T12:12:47.576Z,60.72
2023-01-08T12:15:49.837Z,61.29
2023-01-08T12:18:43.791Z,62.92
2023-01-08T12:21:42.120Z,64.02
2023-01-08T12:25:02.862Z,64.26
2023-01-08T12:28:06.782Z,65.71
2023-01-08T12:31:21.232Z,65.71
2023-01-08T12:34:25.165Z,65.92
2023-01-08T12:37:23.171Z,66.25
2023-01-08T12:40:29.829Z,65.76
2023-01-08T12:43:30.884Z,66.33
2023-01-08T12:46:28.829Z,66.71
2023-01-08T12:49:27.724Z,67.95
2023-01-08T12:52:24.888Z,67.86
2023-01-08T12:55:24.708Z,68.59
2023-01-08T12:58:23.847Z,68.60
2023-01-08T13:01:26.002Z,69.44
2023-01-08T13:04:17.169Z,69.70
2023-01-08T13:07:06.813Z,69.39
2023-01-08T13:09:57.477Z,69.52
2023-01-08T13:12:51.836Z,68.31
2023-01-08T13:15:42.134Z,69.80
2023-01-08T13:18:27.846Z,69.32
2023-01-08T13:21:26.862Z,69.22
2023-01-08T13:24:40.879Z,68.73
2023-01-08T13:27:23.220Z,68.24
2023-01-08T13:30:11.778Z,68.75
2023-01-08T13:33:02.851Z,68.62
2023-01-08T13:35:51.089Z,69.25
2023-01-08T13:38:34.135Z,69.17
2023-01-08T13:42:12.334Z,68.75
2023-01-08T13:45:10.011Z,69.00
2023-01-08T13:47:59.832Z,69.58
2023-01-08T13:50:44.225Z,69.77
2023-01-08T13:53:32.868Z,69.64
2023-01-08T13:56:17.170Z,69.86
2023-01-08T13:59:16.917Z,69.74
2023-01-08T14:02:04.274Z,69.50
2023-01-08T14:08:31.180Z,70.72
2023-01-08T14:11:12.805Z,70.88
2023-01-08T14:13:55.540Z,71.48
2023-01-08T14:16:44.951Z,71.41
2023-01-08T14:22:37.877Z,71.64
2023-01-08T14:25:27.895Z,71.97
2023-01-08T14:28:15.119Z,72.86
2023-01-08T14:31:05.867Z,72.43
2023-01-08T14:33:57.117Z,72.35
2023-01-08T14:39:45.097Z,73.75
2023-01-08T14:42:54.765Z,73.20
2023-01-08T14:45:40.373Z,73.46
2023-01-08T14:48:34.036Z,73.97
2023-01-08T14:51:21.497Z,74.33
2023-01-08T14:54:13.852Z,74.99
2023-01-08T14:57:07.706Z,74.19
2023-01-08T15:00:05.837Z,74.13
2023-01-08T15:02:48.157Z,75.59
2023-01-08T15:05:41.846Z,76.18
2023-01-08T15:08:34.213Z,75.69
2023-01-08T15:11:38.812Z,74.07
2023-01-08T15:14:30.792Z,74.07
2023-01-08T15:17:25.853Z,75.75
2023-01-08T15:20:08.109Z,77.21
2023-01-08T15:22:56.822Z,77.18
2023-01-08T15:25:52.745Z,77.89
2023-01-08T15:28:42.842Z,78.34
2023-01-08T15:31:39.039Z,78.05
2023-01-08T15:34:28.826Z,78.28
2023-01-08T15:37:11.179Z,77.13
2023-01-08T15:39:59.875Z,76.66
2023-01-08T15:43:00.317Z,77.74
2023-01-08T15:45:53.882Z,78.80
2023-01-08T15:48:48.659Z,79.26
2023-01-08T15:51:42.118Z,78.30
2023-01-08T15:54:24.145Z,78.17
2023-01-08T15:57:12.857Z,78.76
2023-01-08T15:59:55.398Z,78.49
2023-01-08T16:02:54.945Z,78.25
2023-01-08T16:05:38.225Z,77.58
2023-01-08T16:08:26.787Z,77.40
2023-01-08T16:11:15.869Z,77.88
2023-01-08T16:14:04.919Z,77.36
2023-01-08T16:16:47.351Z,77.21
2023-01-08T16:19:38.815Z,76.73
2023-01-08T16:22:27.899Z,78.03
2023-01-08T16:25:18.163Z,78.22
2023-01-08T16:28:00.752Z,78.29
2023-01-08T16:30:44.213Z,78.77
2023-01-08T16:33:32.892Z,77.78
2023-01-08T16:36:21.811Z,78.12
2023-01-08T16:39:04.330Z,78.48
2023-01-08T16:41:52.783Z,78.55
2023-01-08T16:44:36.140Z,78.35
2023-01-08T16:47:24.904Z,77.79
2023-01-08T16:50:20.669Z,78.17
2023-01-08T16:53:12.192Z,77.71
2023-01-08T16:55:54.382Z,77.67
2023-01-08T16:58:43.910Z,77.03
2023-01-08T17:01:26.170Z,76.96
2023-01-08T17:04:14.738Z,76.53
2023-01-08T17:06:58.214Z,77.06
2023-01-08T17:09:47.894Z,77.75
2023-01-08T17:12:30.885Z,77.48
2023-01-08T17:15:19.860Z,77.39
2023-01-08T17:18:08.712Z,77.01
2023-01-08T17:21:01.847Z,77.60
2023-01-08T17:23:44.635Z,77.40
2023-01-08T17:26:33.951Z,77.99
2023-01-08T17:29:16.140Z,77.52
2023-01-08T17:32:04.845Z,76.77
2023-01-08T17:34:47.116Z,78.09
2023-01-08T17:37:38.754Z,77.97
2023-01-08T17:40:21.205Z,77.43
2023-01-08T17:43:09.958Z,77.37
2023-01-08T17:45:53.024Z,77.33
2023-01-08T17:48:50.769Z,78.69
2023-01-08T17:51:34.476Z,78.00
2023-01-08T17:54:27.779Z,77.26
2023-01-08T17:57:10.250Z,77.76
2023-01-08T17:59:59.771Z,78.09
2023-01-08T18:02:48.172Z,77.74
2023-01-08T18:05:30.776Z,79.31
2023-01-08T18:08:20.266Z,79.50
2023-01-08T18:11:02.116Z,79.01
2023-01-08T18:13:51.073Z,79.28
2023-01-08T18:16:34.013Z,80.29
2023-01-08T18:19:23.078Z,78.75
2023-01-08T18:22:05.743Z,79.25
2023-01-08T18:24:47.983Z,80.44
2023-01-08T18:27:36.823Z,79.10
2023-01-08T18:30:26.281Z,78.48
2023-01-08T18:33:07.805Z,79.62
2023-01-08T18:35:56.185Z,80.46
2023-01-08T18:38:38.823Z,80.00
2023-01-08T18:41:47.625Z,80.09
2023-01-08T18:44:30.903Z,80.74
2023-01-08T18:47:19.088Z,79.59
2023-01-08T18:50:15.873Z,79.77
2023-01-08T18:53:05.641Z,80.92
2023-01-08T18:55:48.723Z,81.19
2023-01-08T18:58:38.189Z,80.12
2023-01-08T19:01:20.948Z,79.56
2023-01-08T19:04:03.549Z,80.35
2023-01-08T19:06:52.804Z,79.74
2023-01-08T19:09:41.156Z,80.22
2023-01-08T19:12:23.764Z,80.45
2023-01-08T19:15:13.442Z,80.74
2023-01-08T19:17:56.827Z,80.77
2023-01-08T19:20:51.110Z,80.24
2023-01-08T19:23:33.758Z,80.70
2023-01-08T19:26:23.135Z,81.21
2023-01-08T19:29:05.880Z,81.01
2023-01-08T19:31:55.225Z,81.26
2023-01-08T19:34:37.907Z,81.49
2023-01-08T19:37:27.576Z,80.09
2023-01-08T19:40:10.730Z,80.86
2023-01-08T19:43:17.465Z,80.83
2023-01-08T19:45:59.935Z,80.54
2023-01-08T19:48:55.654Z,80.80
2023-01-08T19:51:44.780Z,80.26
2023-01-08T19:54:27.293Z,81.09
2023-01-08T19:57:15.763Z,81.03
2023-01-08T19:59:58.269Z,80.98
2023-01-08T20:02:53.772Z,81.83
2023-01-08T20:05:36.044Z,81.94
2023-01-08T20:08:24.811Z,82.07
2023-01-08T20:11:19.788Z,81.61
2023-01-08T20:14:09.199Z,81.81
2023-01-08T20:16:52.089Z,82.18
2023-01-08T20:19:40.208Z,82.14
2023-01-08T20:22:22.804Z,82.80
2023-01-08T20:25:06.088Z,81.66
2023-01-08T20:27:54.709Z,82.26
2023-01-08T20:30:43.755Z,82.52
2023-01-08T20:33:26.079Z,82.51
2023-01-08T20:36:23.808Z,81.55
2023-01-08T20:39:13.048Z,81.65
2023-01-08T20:42:04.671Z,81.71
2023-01-08T20:44:46.977Z,81.42
2023-01-08T20:47:35.814Z,82.37
2023-01-08T20:50:26.111Z,82.34
2023-01-08T20:53:07.815Z,83.01
2023-01-08T20:55:50.225Z,82.03
2023-01-08T20:58:38.715Z,81.56
2023-01-08T21:01:32.505Z,81.70
2023-01-08T21:04:18.868Z,81.75
2023-01-08T21:07:01.410Z,82.01
2023-01-08T21:09:51.745Z,81.78
2023-01-08T21:12:34.096Z,81.54
2023-01-08T21:15:23.783Z,81.99
2023-01-08T21:18:06.111Z,82.28
2023-01-08T21:20:54.702Z,82.14
2023-01-08T21:23:36.947Z,82.48
2023-01-08T21:26:26.708Z,82.82
2023-01-08T21:29:10.140Z,82.53
2023-01-08T21:31:58.867Z,82.40
2023-01-08T21:34:47.681Z,82.47
2023-01-08T21:37:32.390Z,82.89
2023-01-08T21:40:22.796Z,82.85
2023-01-08T21:43:23.187Z,82.43
2023-01-08T21:46:11.835Z,82.52
2023-01-08T21:48:55.104Z,82.17
2023-01-08T21:52:01.787Z,83.20
2023-01-08T21:54:44.094Z,82.07
2023-01-08T21:57:35.696Z,82.17
2023-01-08T22:00:26.772Z,82.44
2023-01-08T22:03:15.811Z,82.00
2023-01-08T22:06:09.066Z,81.78
2023-01-08T22:09:01.683Z,81.30
2023-01-08T22:11:44.078Z,81.57
2023-01-08T22:14:32.784Z,82.66
2023-01-08T22:17:15.543Z,81.97
2023-01-08T22:20:05.737Z,82.38
2023-01-08T22:22:48.179Z,83.15
2023-01-08T22:25:36.735Z,83.25
2023-01-08T22:28:18.951Z,83.64
2023-01-08T22:31:12.792Z,84.46
2023-01-08T22:33:55.323Z,83.51
2023-01-08T22:36:43.712Z,84.21
2023-01-08T22:39:25.961Z,84.06
2023-01-08T22:42:14.687Z,84.48
2023-01-08T22:44:58.003Z,83.99
2023-01-08T22:47:46.659Z,84.54
2023-01-08T22:50:29.077Z,84.56
2023-01-08T22:53:17.723Z,84.48
2023-01-08T22:56:00.246Z,84.61
2023-01-08T22:58:49.715Z,85.90
2023-01-08T23:01:34.119Z,85.51
2023-01-08T23:04:22.715Z,85.56
2023-01-08T23:07:05.019Z,86.01
2023-01-08T23:09:54.732Z,85.57
2023-01-08T23:12:36.995Z,85.28
2023-01-08T23:15:26.749Z,85.59
2023-01-08T23:18:09.060Z,86.09
2023-01-08T23:20:57.783Z,85.63
2023-01-08T23:23:40.064Z,86.11
2023-01-08T23:26:32.755Z,85.98
2023-01-08T23:29:15.013Z,86.01
2023-01-08T23:32:06.658Z,86.23
2023-01-08T23:34:49.042Z,86.21
2023-01-08T23:37:37.657Z,86.41
2023-01-08T23:40:20.021Z,86.06
2023-01-08T23:43:08.713Z,86.89
2023-01-08T23:45:51.025Z,86.60
2023-01-08T23:48:39.730Z,86.25
2023-01-08T23:51:28.999Z,86.74
2023-01-08T23:54:11.752Z,86.74
2023-01-08T23:57:00.731Z,86.95
2023-01-08T23:59:49.781Z,86.98
